createdAt,value
2023-04-06T00:01:33.926Z,96064.72
2023-04-06T00:03:37.159Z,96063.31
2023-04-06T00:05:40.128Z,96066.78
2023-04-06T00:07:43.074Z,96058.00
2023-04-06T00:09:46.106Z,96058.41
2023-04-06T00:11:48.972Z,96045.53
2023-04-06T00:13:51.870Z,96030.47
2023-04-06T00:15:56.110Z,96042.66
2023-04-06T00:17:59.070Z,96051.63
2023-04-06T00:20:02.146Z,96054.09
2023-04-06T00:22:05.106Z,95967.84
2023-04-06T00:24:08.161Z,96011.31
2023-04-06T00:26:11.951Z,96048.84
2023-04-06T00:28:18.147Z,96050.03
2023-04-06T00:30:21.247Z,96052.75
2023-04-06T00:32:25.499Z,96050.75
2023-04-06T00:34:28.477Z,96054.41
2023-04-06T00:36:31.360Z,96037.31
2023-04-06T00:38:34.272Z,96043.94
2023-04-06T00:40:37.194Z,96032.13
2023-04-06T00:42:40.195Z,96016.56
2023-04-06T00:44:43.258Z,96034.84
2023-04-06T00:46:46.559Z,96025.19
2023-04-06T00:48:50.850Z,96002.22
2023-04-06T00:50:53.710Z,96021.72
2023-04-06T00:52:56.881Z,96032.19
2023-04-06T00:55:03.442Z,96031.38
2023-04-06T00:57:06.772Z,96028.03
2023-04-06T00:59:10.164Z,96005.94
2023-04-06T01:01:13.257Z,96022.63
2023-04-06T01:03:17.168Z,95863.41
2023-04-06T01:05:22.068Z,96025.91
2023-04-06T01:07:28.814Z,96035.88
2023-04-06T01:09:51.592Z,96017.72
2023-04-06T01:11:59.367Z,96021.88
2023-04-06T01:14:06.788Z,96026.00
2023-04-06T01:16:31.431Z,95995.28
2023-04-06T01:18:44.228Z,96014.81
2023-04-06T01:20:53.645Z,96013.50
2023-04-06T01:22:59.406Z,96023.09
2023-04-06T01:25:02.717Z,95953.66
2023-04-06T01:27:21.994Z,96013.28
2023-04-06T01:29:43.963Z,96015.69
2023-04-06T01:31:49.475Z,96017.34
2023-04-06T01:33:52.848Z,95980.13
2023-04-06T01:35:58.522Z,96012.09
2023-04-06T01:38:03.308Z,96013.88
2023-04-06T01:40:10.658Z,95981.19
2023-04-06T01:42:20.024Z,96019.44
2023-04-06T01:44:24.546Z,96013.81
2023-04-06T01:46:39.041Z,96006.06
2023-04-06T01:48:43.541Z,96014.13
2023-04-06T01:51:09.367Z,96013.38
2023-04-06T01:53:22.633Z,95946.03
2023-04-06T01:55:27.084Z,95991.94
2023-04-06T01:57:51.358Z,95995.78
2023-04-06T02:00:08.063Z,95996.31
2023-04-06T02:02:16.831Z,95998.38
2023-04-06T02:04:29.512Z,95998.84
2023-04-06T02:06:42.374Z,95983.72
2023-04-06T02:08:49.757Z,95994.03
2023-04-06T02:10:53.131Z,95998.31
2023-04-06T02:13:05.498Z,95976.13
2023-04-06T02:15:09.617Z,95985.47
2023-04-06T02:17:12.464Z,96001.81
2023-04-06T02:19:15.575Z,96000.25
2023-04-06T02:21:21.257Z,95990.13
2023-04-06T02:23:24.232Z,95981.19
2023-04-06T02:25:28.965Z,95988.72
2023-04-06T02:27:31.885Z,95990.50
2023-04-06T02:29:34.954Z,95985.75
2023-04-06T02:31:38.172Z,95987.38
2023-04-06T02:33:42.362Z,95971.63
2023-04-06T02:35:46.937Z,95981.47
2023-04-06T02:37:50.079Z,95960.41
2023-04-06T02:39:52.978Z,95949.31
2023-04-06T02:41:57.991Z,95981.75
2023-04-06T02:44:02.447Z,95989.13
2023-04-06T02:46:14.442Z,95982.31
2023-04-06T02:48:17.595Z,95953.06
2023-04-06T02:50:20.559Z,95996.28
2023-04-06T02:52:31.792Z,95990.88
2023-04-06T02:54:34.922Z,95987.66
2023-04-06T02:56:39.336Z,95982.81
2023-04-06T02:58:43.690Z,95993.41
2023-04-06T03:00:46.657Z,95984.09
2023-04-06T03:02:49.583Z,95981.25
2023-04-06T03:04:54.791Z,95966.31
2023-04-06T03:07:03.562Z,95968.22
2023-04-06T03:09:12.234Z,95988.50
2023-04-06T03:11:18.430Z,95880.13
2023-04-06T03:13:21.600Z,95937.53
2023-04-06T03:15:34.664Z,95958.22
2023-04-06T03:17:48.298Z,95978.88
2023-04-06T03:20:14.746Z,95741.91
2023-04-06T03:22:17.662Z,95971.81
2023-04-06T03:24:23.843Z,95977.47
2023-04-06T03:26:26.733Z,95993.75
2023-04-06T03:28:29.583Z,95989.03
2023-04-06T03:30:37.137Z,95965.81
2023-04-06T03:32:41.586Z,95987.84
2023-04-06T03:34:44.541Z,95980.38
2023-04-06T03:36:51.670Z,95888.16
2023-04-06T03:39:03.981Z,95942.50
2023-04-06T03:41:10.148Z,95973.56
2023-04-06T03:43:12.981Z,95979.38
2023-04-06T03:45:16.952Z,95976.09
2023-04-06T03:47:27.434Z,95980.94
2023-04-06T03:49:34.106Z,95979.09
2023-04-06T03:51:37.289Z,95977.63
2023-04-06T03:53:40.161Z,95990.09
2023-04-06T03:55:43.142Z,95988.34
2023-04-06T03:57:46.092Z,95987.22
2023-04-06T03:59:48.942Z,95994.41
2023-04-06T04:01:52.114Z,95998.75
2023-04-06T04:03:56.459Z,95989.81
2023-04-06T04:05:59.371Z,95993.91
2023-04-06T04:08:02.812Z,95999.22
2023-04-06T04:10:06.371Z,96001.22
2023-04-06T04:12:09.313Z,95982.19
2023-04-06T04:14:12.418Z,95987.75
2023-04-06T04:16:15.358Z,95956.19
2023-04-06T04:18:18.468Z,96005.75
2023-04-06T04:20:22.917Z,96004.50
2023-04-06T04:22:26.199Z,95962.53
2023-04-06T04:24:29.052Z,96008.97
2023-04-06T04:26:32.538Z,96002.31
2023-04-06T04:28:35.500Z,95982.19
2023-04-06T04:30:38.383Z,96006.69
2023-04-06T04:32:45.869Z,96019.03
2023-04-06T04:34:49.296Z,96001.44
2023-04-06T04:37:07.686Z,96013.59
2023-04-06T04:39:30.992Z,95986.19
2023-04-06T04:41:39.128Z,96016.88
2023-04-06T04:43:45.349Z,96014.22
2023-04-06T04:45:49.741Z,96013.06
2023-04-06T04:48:07.204Z,95989.41
2023-04-06T04:50:22.257Z,96015.53
2023-04-06T04:52:29.895Z,96000.63
2023-04-06T04:54:52.950Z,96014.28
2023-04-06T04:57:01.316Z,96025.03
2023-04-06T04:59:15.885Z,96020.38
2023-04-06T05:01:26.048Z,96023.41
2023-04-06T05:03:29.316Z,95998.22
2023-04-06T05:05:38.332Z,96020.56
2023-04-06T05:07:43.701Z,96025.94
2023-04-06T05:09:53.567Z,96017.38
2023-04-06T05:11:58.302Z,96020.28
2023-04-06T05:14:02.049Z,96027.13
2023-04-06T05:16:05.992Z,96018.75
2023-04-06T05:18:11.272Z,95998.97
2023-04-06T05:20:14.310Z,96033.31
2023-04-06T05:22:23.315Z,96028.00
2023-04-06T05:24:37.146Z,96028.75
2023-04-06T05:26:42.855Z,96021.13
2023-04-06T05:28:55.629Z,96010.53
2023-04-06T05:30:59.464Z,95959.25
2023-04-06T05:33:06.252Z,96018.19
2023-04-06T05:35:22.241Z,96035.22
2023-04-06T05:37:28.642Z,96019.16
2023-04-06T05:39:31.836Z,96029.13
2023-04-06T05:41:37.893Z,96038.69
2023-04-06T05:43:40.841Z,96032.66
2023-04-06T05:45:46.461Z,96030.28
2023-04-06T05:47:49.526Z,96028.78
2023-04-06T05:49:59.084Z,96044.72
2023-04-06T05:52:14.363Z,96038.31
2023-04-06T05:54:21.014Z,96046.78
2023-04-06T05:56:24.759Z,96035.63
2023-04-06T05:58:29.134Z,96050.13
2023-04-06T06:00:32.642Z,96050.38
2023-04-06T06:02:43.238Z,96043.88
2023-04-06T06:04:52.046Z,96043.31
2023-04-06T06:06:55.508Z,96056.81
2023-04-06T06:09:04.833Z,96053.41
2023-04-06T06:11:13.408Z,96011.06
2023-04-06T06:13:16.357Z,96049.06
2023-04-06T06:15:21.655Z,96055.47
2023-04-06T06:17:24.979Z,96059.00
2023-04-06T06:19:27.839Z,96057.41
2023-04-06T06:21:34.015Z,96057.03
2023-04-06T06:23:37.253Z,96051.16
2023-04-06T06:25:40.942Z,96061.59
2023-04-06T06:27:44.253Z,96051.84
2023-04-06T06:29:47.090Z,96053.56
2023-04-06T06:31:51.734Z,96060.97
2023-04-06T06:33:54.851Z,96062.22
2023-04-06T06:35:58.105Z,96064.09
2023-04-06T06:38:01.125Z,96057.41
2023-04-06T06:40:04.642Z,96068.44
2023-04-06T06:42:08.816Z,96071.75
2023-04-06T06:44:41.575Z,96074.25
2023-04-06T06:46:44.523Z,96043.81
2023-04-06T06:48:48.748Z,96070.25
2023-04-06T06:50:51.530Z,96070.47
2023-04-06T06:52:54.358Z,96074.41
2023-04-06T06:54:57.783Z,96077.88
2023-04-06T06:57:01.292Z,95991.19
2023-04-06T06:59:04.428Z,96060.41
2023-04-06T07:01:07.396Z,96073.09
2023-04-06T07:03:11.419Z,96062.31
2023-04-06T07:05:26.967Z,96052.88
2023-04-06T07:07:32.334Z,96076.03
2023-04-06T07:09:35.593Z,96063.19
2023-04-06T07:11:38.482Z,96075.88
2023-04-06T07:13:41.954Z,96052.16
2023-04-06T07:15:44.746Z,96073.22
2023-04-06T07:17:48.754Z,96037.88
2023-04-06T07:19:51.697Z,96077.94
2023-04-06T07:21:57.275Z,96067.09
2023-04-06T07:24:00.118Z,96063.59
2023-04-06T07:26:02.878Z,96067.25
2023-04-06T07:28:06.579Z,96072.13
2023-04-06T07:30:10.308Z,96070.88
2023-04-06T07:32:13.786Z,96074.97
2023-04-06T07:34:16.728Z,96072.47
2023-04-06T07:36:20.398Z,96058.34
2023-04-06T07:38:24.707Z,96060.78
2023-04-06T07:40:28.442Z,96069.97
2023-04-06T07:42:34.011Z,96069.97
2023-04-06T07:44:36.961Z,96071.16
2023-04-06T07:46:39.835Z,96077.63
2023-04-06T07:48:42.891Z,96084.19
2023-04-06T07:50:45.733Z,96072.91
2023-04-06T07:52:48.822Z,96080.25
2023-04-06T07:54:53.405Z,96076.53
2023-04-06T07:56:56.176Z,96076.88
2023-04-06T07:58:59.179Z,96040.47
2023-04-06T08:01:02.976Z,96077.00
2023-04-06T08:03:06.117Z,96072.22
2023-04-06T08:05:09.512Z,96075.28
2023-04-06T08:07:12.499Z,96071.91
2023-04-06T08:09:15.266Z,96064.28
2023-04-06T08:11:19.414Z,96080.63
2023-04-06T08:13:22.268Z,96077.75
2023-04-06T08:15:25.073Z,96063.53
2023-04-06T08:17:31.448Z,96080.91
2023-04-06T08:19:34.484Z,96072.00
2023-04-06T08:21:37.500Z,95957.56
2023-04-06T08:23:40.325Z,96062.91
2023-04-06T08:25:44.203Z,96046.69
2023-04-06T08:27:48.446Z,96068.03
2023-04-06T08:29:52.637Z,95997.59
2023-04-06T08:31:55.969Z,96064.03
2023-04-06T08:33:58.901Z,96063.63
2023-04-06T08:36:01.789Z,96066.72
2023-04-06T08:38:04.640Z,96071.81
2023-04-06T08:40:08.598Z,96065.22
2023-04-06T08:42:18.418Z,96072.69
2023-04-06T08:44:22.623Z,96064.69
2023-04-06T08:46:30.498Z,96068.09
2023-04-06T08:48:35.555Z,96070.94
2023-04-06T08:50:40.670Z,96073.06
2023-04-06T08:52:45.793Z,96060.13
2023-04-06T08:54:49.628Z,96063.97
2023-04-06T08:56:53.640Z,96066.31
2023-04-06T08:58:57.545Z,96066.31
2023-04-06T09:01:02.855Z,96047.34
2023-04-06T09:03:07.544Z,96077.97
2023-04-06T09:05:11.644Z,96056.59
2023-04-06T09:07:14.512Z,96067.53
2023-04-06T09:09:17.521Z,96055.97
2023-04-06T09:11:21.838Z,96060.56
2023-04-06T09:13:24.668Z,96057.84
2023-04-06T09:15:27.596Z,96056.50
2023-04-06T09:17:34.754Z,96064.59
2023-04-06T09:19:47.478Z,96064.28
2023-04-06T09:21:50.320Z,96063.56
2023-04-06T09:24:01.553Z,96043.56
2023-04-06T09:26:09.154Z,96064.28
2023-04-06T09:28:12.174Z,96062.84
2023-04-06T09:30:17.551Z,96060.78
2023-04-06T09:32:20.540Z,96066.16
2023-04-06T09:34:25.381Z,96064.38
2023-04-06T09:36:35.189Z,96062.50
2023-04-06T09:38:39.455Z,96064.09
2023-04-06T09:41:00.929Z,96059.91
2023-04-06T09:43:07.980Z,96066.09
2023-04-06T09:45:11.775Z,96032.81
2023-04-06T09:47:15.992Z,96058.44
2023-04-06T09:49:20.426Z,96065.00
2023-04-06T09:51:26.638Z,96055.13
2023-04-06T09:53:33.380Z,96059.28
2023-04-06T09:55:41.967Z,96057.75
2023-04-06T09:57:52.482Z,96050.84
2023-04-06T10:00:00.248Z,96050.38
2023-04-06T10:02:07.182Z,96051.09
2023-04-06T10:04:23.156Z,95977.56
2023-04-06T10:06:30.740Z,96053.75
2023-04-06T10:08:37.722Z,96054.84
2023-04-06T10:10:40.603Z,96051.41
2023-04-06T10:12:44.697Z,96044.44
2023-04-06T10:14:47.544Z,96039.06
2023-04-06T10:16:50.803Z,96045.59
2023-04-06T10:18:58.657Z,96039.28
2023-04-06T10:21:08.510Z,96035.03
2023-04-06T10:23:16.812Z,96036.47
2023-04-06T10:25:27.856Z,96037.09
2023-04-06T10:27:31.592Z,96036.25
2023-04-06T10:29:46.089Z,96030.81
2023-04-06T10:31:51.049Z,96034.09
2023-04-06T10:33:57.894Z,96030.13
2023-04-06T10:36:11.330Z,96027.34
2023-04-06T10:38:16.103Z,96041.94
2023-04-06T10:40:24.476Z,96016.81
2023-04-06T10:42:37.994Z,96033.09
2023-04-06T10:44:45.756Z,96035.59
2023-04-06T10:46:55.676Z,96021.81
2023-04-06T10:48:59.096Z,96031.53
2023-04-06T10:51:01.963Z,96029.66
2023-04-06T10:53:05.283Z,96035.03
2023-04-06T10:55:10.945Z,96030.69
2023-04-06T10:57:14.867Z,95951.28
2023-04-06T10:59:21.386Z,96029.69
2023-04-06T11:01:25.576Z,96019.63
2023-04-06T11:03:28.605Z,96027.75
2023-04-06T11:05:32.420Z,96026.69
2023-04-06T11:07:35.890Z,96028.84
2023-04-06T11:09:38.958Z,96028.53
2023-04-06T11:11:43.217Z,96023.94
2023-04-06T11:13:47.684Z,96024.78
2023-04-06T11:15:50.505Z,96021.19
2023-04-06T11:17:53.486Z,96015.34
2023-04-06T11:19:57.885Z,96009.84
2023-04-06T11:22:09.136Z,96003.28
2023-04-06T11:24:13.756Z,96000.25
2023-04-06T11:26:17.212Z,96004.63
2023-04-06T11:28:21.713Z,96010.50
2023-04-06T11:30:24.588Z,96000.53
2023-04-06T11:32:27.398Z,95998.97
2023-04-06T11:34:32.167Z,95989.72
2023-04-06T11:36:35.025Z,96004.84
2023-04-06T11:38:41.475Z,96005.75
2023-04-06T11:40:44.345Z,96003.47
2023-04-06T11:42:54.506Z,95990.28
2023-04-06T11:44:59.737Z,95980.13
2023-04-06T11:47:03.510Z,95975.06
2023-04-06T11:49:06.478Z,95984.63
2023-04-06T11:51:09.395Z,95979.84
2023-04-06T11:53:12.250Z,95973.91
2023-04-06T11:55:17.156Z,95972.25
2023-04-06T11:57:21.259Z,95969.88
2023-04-06T11:59:24.135Z,95965.19
2023-04-06T12:01:28.945Z,95962.53
2023-04-06T12:03:32.083Z,95967.84
2023-04-06T12:05:35.838Z,95962.38
2023-04-06T12:07:38.771Z,95947.41
2023-04-06T12:09:41.611Z,95968.88
2023-04-06T12:11:44.376Z,95969.28
2023-04-06T12:13:47.228Z,95951.75
2023-04-06T12:15:50.811Z,95962.91
2023-04-06T12:17:55.141Z,95947.97
2023-04-06T12:20:05.158Z,95930.34
2023-04-06T12:22:12.388Z,95934.06
2023-04-06T12:24:15.218Z,95954.38
2023-04-06T12:26:18.043Z,95948.13
2023-04-06T12:28:24.013Z,95950.50
2023-04-06T12:30:26.950Z,95945.38
2023-04-06T12:32:29.801Z,95944.16
2023-04-06T12:34:34.240Z,95941.97
2023-04-06T12:36:38.559Z,95942.66
2023-04-06T12:38:42.209Z,95945.50
2023-04-06T12:40:45.203Z,95940.94
2023-04-06T12:42:48.181Z,95931.78
2023-04-06T12:44:51.002Z,95936.06
2023-04-06T12:46:53.878Z,95933.91
2023-04-06T12:48:57.512Z,95880.88
2023-04-06T12:51:03.560Z,95927.13
2023-04-06T12:53:06.503Z,95930.44
2023-04-06T12:55:10.510Z,95915.78
2023-04-06T12:57:13.303Z,95888.75
2023-04-06T12:59:17.387Z,95929.44
2023-04-06T13:01:21.069Z,95927.06
2023-04-06T13:03:24.108Z,95928.09
2023-04-06T13:05:28.481Z,95904.47
2023-04-06T13:07:33.458Z,95924.59
2023-04-06T13:09:36.349Z,95914.66
2023-04-06T13:11:39.832Z,95911.94
2023-04-06T13:13:42.757Z,95913.16
2023-04-06T13:15:47.438Z,95901.00
2023-04-06T13:17:50.436Z,95909.53
2023-04-06T13:19:53.290Z,95903.75
2023-04-06T13:21:56.123Z,95859.06
2023-04-06T13:24:00.897Z,95906.66
2023-04-06T13:26:05.955Z,95904.31
2023-04-06T13:28:09.419Z,95897.41
2023-04-06T13:30:15.701Z,95827.59
2023-04-06T13:32:19.181Z,95904.13
2023-04-06T13:34:22.076Z,95903.16
2023-04-06T13:36:25.147Z,95893.28
2023-04-06T13:38:27.967Z,95861.81
2023-04-06T13:40:32.324Z,95904.72
2023-04-06T13:42:36.150Z,95887.13
2023-04-06T13:44:38.953Z,95881.25
2023-04-06T13:46:41.915Z,95880.06
2023-04-06T13:48:45.089Z,95876.09
2023-04-06T13:50:48.064Z,95879.31
2023-04-06T13:52:50.892Z,95881.25
2023-04-06T13:54:54.313Z,95884.56
2023-04-06T13:56:58.693Z,95878.31
2023-04-06T13:59:01.519Z,95847.00
2023-04-06T14:01:05.821Z,95890.06
2023-04-06T14:03:08.808Z,95881.19
2023-04-06T14:05:12.471Z,95886.81
2023-04-06T14:07:15.275Z,95877.69
2023-04-06T14:09:17.973Z,95886.66
2023-04-06T14:11:20.721Z,95860.03
2023-04-06T14:13:24.729Z,95870.34
2023-04-06T14:15:28.872Z,95872.28
2023-04-06T14:17:31.568Z,95870.56
2023-04-06T14:19:34.297Z,95856.84
2023-04-06T14:21:37.623Z,95865.13
2023-04-06T14:23:40.470Z,95881.34
2023-04-06T14:25:43.228Z,95877.34
2023-04-06T14:27:46.200Z,95875.91
2023-04-06T14:29:50.600Z,95881.16
2023-04-06T14:31:53.460Z,95875.66
2023-04-06T14:33:56.554Z,95878.53
2023-04-06T14:35:59.311Z,95876.06
2023-04-06T14:38:02.518Z,95877.13
2023-04-06T14:40:06.029Z,95879.91
2023-04-06T14:42:08.851Z,95869.63
2023-04-06T14:44:13.241Z,95833.47
2023-04-06T14:46:17.843Z,95876.53
2023-04-06T14:48:21.016Z,95809.13
2023-04-06T14:50:23.836Z,95834.50
2023-04-06T14:52:26.895Z,95775.44
2023-04-06T14:54:29.663Z,95870.81
2023-04-06T14:56:33.218Z,95862.22
2023-04-06T14:58:36.089Z,95864.47
2023-04-06T15:00:38.912Z,95838.00
2023-04-06T15:02:44.220Z,95859.75
2023-04-06T15:04:47.164Z,95855.63
2023-04-06T15:06:49.825Z,95862.06
2023-04-06T15:08:52.490Z,95851.66
2023-04-06T15:10:57.384Z,95859.50
2023-04-06T15:13:00.283Z,95864.88
2023-04-06T15:15:03.052Z,95867.34
2023-04-06T15:17:06.482Z,95809.72
2023-04-06T15:19:11.877Z,95800.25
2023-04-06T15:21:14.603Z,95857.50
2023-04-06T15:23:17.376Z,95862.88
2023-04-06T15:25:20.127Z,95859.75
2023-04-06T15:27:22.880Z,95859.31
2023-04-06T15:29:26.216Z,95864.44
2023-04-06T15:31:37.489Z,95869.13
2023-04-06T15:33:41.485Z,95872.25
2023-04-06T15:35:47.926Z,95870.34
2023-04-06T15:37:50.737Z,95860.66
2023-04-06T15:39:53.467Z,95872.03
2023-04-06T15:41:56.926Z,95839.16
2023-04-06T15:43:59.864Z,95862.13
2023-04-06T15:46:03.326Z,95863.94
2023-04-06T15:48:07.629Z,95861.69
2023-04-06T15:50:11.323Z,95869.19
2023-04-06T15:52:15.511Z,95856.81
2023-04-06T15:54:20.036Z,95873.22
2023-04-06T15:56:22.795Z,95868.16
2023-04-06T15:58:25.679Z,95852.22
2023-04-06T16:00:29.530Z,95870.53
2023-04-06T16:02:32.558Z,95860.75
2023-04-06T16:04:35.661Z,95879.22
2023-04-06T16:06:38.584Z,95885.41
2023-04-06T16:08:42.895Z,95847.28
2023-04-06T16:10:46.028Z,95883.78
2023-04-06T16:12:48.726Z,95885.72
2023-04-06T16:14:51.740Z,95889.47
2023-04-06T16:16:54.933Z,95881.28
2023-04-06T16:18:57.651Z,95892.75
2023-04-06T16:21:00.666Z,95894.59
2023-04-06T16:23:03.401Z,95885.41
2023-04-06T16:25:08.179Z,95888.31
2023-04-06T16:27:10.906Z,95889.66
2023-04-06T16:29:13.632Z,95895.56
2023-04-06T16:31:23.247Z,95869.81
2023-04-06T16:33:25.979Z,95896.00
2023-04-06T16:35:28.726Z,95850.22
2023-04-06T16:37:31.772Z,95899.03
2023-04-06T16:39:34.484Z,95894.50
2023-04-06T16:41:40.647Z,95906.59
2023-04-06T16:43:43.429Z,95860.75
2023-04-06T16:45:51.241Z,95901.06
2023-04-06T16:47:54.276Z,95903.88
2023-04-06T16:50:05.358Z,95909.63
2023-04-06T16:52:09.136Z,95907.31
2023-04-06T16:54:11.895Z,95866.25
2023-04-06T16:56:14.632Z,95897.31
2023-04-06T16:58:18.888Z,95898.47
2023-04-06T17:00:21.841Z,95897.59
2023-04-06T17:02:24.808Z,95902.84
2023-04-06T17:04:28.117Z,95860.38
2023-04-06T17:06:31.231Z,95905.84
2023-04-06T17:08:33.962Z,95897.47
2023-04-06T17:10:41.757Z,95914.00
2023-04-06T17:12:59.471Z,95909.09
2023-04-06T17:15:03.627Z,95898.94
2023-04-06T17:17:06.727Z,95903.34
2023-04-06T17:19:09.518Z,95817.25
2023-04-06T17:21:14.515Z,95910.81
2023-04-06T17:23:18.010Z,95896.28
2023-04-06T17:25:21.040Z,95903.94
2023-04-06T17:27:26.524Z,95880.69
2023-04-06T17:29:29.281Z,95903.94
2023-04-06T17:31:33.369Z,95921.81
2023-04-06T17:33:36.404Z,95915.00
2023-04-06T17:35:39.475Z,95720.00
2023-04-06T17:37:44.451Z,95920.50
2023-04-06T17:39:47.140Z,95920.63
2023-04-06T17:41:49.917Z,95922.28
2023-04-06T17:43:52.618Z,95910.91
2023-04-06T17:45:55.406Z,95929.34
2023-04-06T17:47:59.679Z,95937.53
2023-04-06T17:50:02.845Z,95920.50
2023-04-06T17:52:05.760Z,95912.03
2023-04-06T17:54:09.614Z,95925.31
2023-04-06T17:56:12.692Z,95879.72
2023-04-06T17:58:15.596Z,95935.84
2023-04-06T18:00:24.108Z,95926.88
2023-04-06T18:02:30.399Z,95942.47
2023-04-06T18:04:34.442Z,95932.09
2023-04-06T18:06:37.430Z,95930.94
2023-04-06T18:08:40.460Z,95903.53
2023-04-06T18:10:45.967Z,95935.88
2023-04-06T18:12:49.336Z,95869.91
2023-04-06T18:14:52.264Z,95933.50
2023-04-06T18:16:54.957Z,95939.06
2023-04-06T18:18:57.678Z,95940.38
2023-04-06T18:21:04.556Z,95946.28
2023-04-06T18:23:07.228Z,95913.22
2023-04-06T18:25:10.655Z,95945.72
2023-04-06T18:27:14.191Z,95675.16
2023-04-06T18:29:16.836Z,95953.00
2023-04-06T18:31:21.513Z,95924.63
2023-04-06T18:33:24.207Z,95958.38
2023-04-06T18:35:26.911Z,95962.72
2023-04-06T18:37:31.029Z,95891.09
2023-04-06T18:39:33.772Z,95978.03
2023-04-06T18:41:36.805Z,95960.00
2023-04-06T18:43:40.241Z,95960.41
2023-04-06T18:45:43.457Z,95937.44
2023-04-06T18:47:46.205Z,95977.34
2023-04-06T18:49:50.038Z,95972.63
2023-04-06T18:51:53.594Z,95981.72
2023-04-06T18:53:57.984Z,95982.97
2023-04-06T18:56:00.910Z,95982.31
2023-04-06T18:58:03.620Z,95915.91
2023-04-06T19:00:07.527Z,95990.53
2023-04-06T19:02:14.057Z,95968.41
2023-04-06T19:04:17.296Z,95988.56
2023-04-06T19:06:20.345Z,95960.28
2023-04-06T19:08:23.105Z,96000.59
2023-04-06T19:10:27.215Z,95998.81
2023-04-06T19:12:29.968Z,96002.78
2023-04-06T19:14:33.848Z,96008.41
2023-04-06T19:16:40.989Z,95967.44
2023-04-06T19:18:45.326Z,95999.81
2023-04-06T19:20:48.116Z,96006.56
2023-04-06T19:22:51.044Z,96009.81
2023-04-06T19:24:53.819Z,96029.31
2023-04-06T19:26:58.217Z,96009.31
2023-04-06T19:29:01.180Z,96021.34
2023-04-06T19:31:03.916Z,96021.50
2023-04-06T19:33:06.614Z,96017.44
2023-04-06T19:35:09.769Z,96017.84
2023-04-06T19:37:12.521Z,95981.38
2023-04-06T19:39:17.900Z,96005.19
2023-04-06T19:41:21.494Z,96010.53
2023-04-06T19:43:26.215Z,96013.78
2023-04-06T19:45:29.799Z,95987.56
2023-04-06T19:47:32.650Z,96021.47
2023-04-06T19:49:35.475Z,96006.56
2023-04-06T19:51:38.201Z,95930.22
2023-04-06T19:53:40.978Z,96012.28
2023-04-06T19:55:43.703Z,95992.69
2023-04-06T19:57:46.346Z,96016.75
2023-04-06T19:59:50.543Z,95982.69
2023-04-06T20:01:53.260Z,96013.03
2023-04-06T20:03:56.072Z,96011.06
2023-04-06T20:05:59.235Z,95962.00
2023-04-06T20:08:01.998Z,96017.09
2023-04-06T20:10:05.322Z,96018.16
2023-04-06T20:12:08.180Z,96014.91
2023-04-06T20:14:10.982Z,96024.47
2023-04-06T20:16:15.340Z,96022.16
2023-04-06T20:18:18.101Z,95995.28
2023-04-06T20:20:21.064Z,96015.41
2023-04-06T20:22:23.804Z,96014.81
2023-04-06T20:24:27.045Z,96017.75
2023-04-06T20:26:29.781Z,96015.44
2023-04-06T20:28:32.613Z,95944.81
2023-04-06T20:30:35.442Z,96027.31
2023-04-06T20:32:39.519Z,96022.41
2023-04-06T20:34:42.387Z,95998.47
2023-04-06T20:36:45.298Z,95960.75
2023-04-06T20:38:48.110Z,95995.44
2023-04-06T20:40:51.614Z,95848.28
2023-04-06T20:42:57.267Z,96017.06
2023-04-06T20:45:01.360Z,96018.25
2023-04-06T20:47:04.308Z,95971.22
2023-04-06T20:49:08.359Z,96016.38
2023-04-06T20:51:18.893Z,95993.94
2023-04-06T20:53:22.050Z,96038.25
2023-04-06T20:55:24.808Z,96007.53
2023-04-06T20:57:27.511Z,96005.56
2023-04-06T20:59:30.230Z,96013.00
2023-04-06T21:01:33.267Z,96004.41
2023-04-06T21:03:36.377Z,96001.59
2023-04-06T21:05:40.454Z,96004.75
2023-04-06T21:07:43.244Z,96004.97
2023-04-06T21:09:45.946Z,95980.88
2023-04-06T21:11:48.694Z,95998.00
2023-04-06T21:13:51.705Z,95998.00
2023-04-06T21:15:56.060Z,95992.66
2023-04-06T21:17:58.874Z,95991.03
2023-04-06T21:20:02.929Z,95971.22
2023-04-06T21:22:07.019Z,95978.91
2023-04-06T21:24:09.792Z,95984.84
2023-04-06T21:26:13.573Z,95976.31
2023-04-06T21:28:16.310Z,95969.34
2023-04-06T21:30:19.025Z,95966.56
2023-04-06T21:32:21.785Z,95966.66
2023-04-06T21:34:24.541Z,95944.34
2023-04-06T21:36:27.816Z,95921.91
2023-04-06T21:38:31.850Z,95966.44
2023-04-06T21:40:34.887Z,95890.84
2023-04-06T21:42:37.542Z,95957.13
2023-04-06T21:44:40.295Z,95965.75
2023-04-06T21:46:43.081Z,95916.91
2023-04-06T21:48:46.637Z,95960.50
2023-04-06T21:50:49.442Z,95963.28
2023-04-06T21:52:52.364Z,95960.28
2023-04-06T21:54:56.625Z,95923.28
2023-04-06T21:56:59.324Z,95955.16
2023-04-06T21:59:02.030Z,95964.34
2023-04-06T22:01:10.210Z,95874.44
2023-04-06T22:03:13.119Z,95954.00
2023-04-06T22:05:16.058Z,95956.91
2023-04-06T22:07:18.818Z,95939.00
2023-04-06T22:09:21.529Z,95965.75
2023-04-06T22:11:25.649Z,95952.94
2023-04-06T22:13:28.720Z,95959.00
2023-04-06T22:15:32.036Z,95922.22
2023-04-06T22:17:35.053Z,95899.66
2023-04-06T22:19:37.940Z,95963.41
2023-04-06T22:21:40.907Z,95944.69
2023-04-06T22:23:43.808Z,95964.91
2023-04-06T22:25:46.571Z,95949.34
2023-04-06T22:27:50.790Z,95946.88
2023-04-06T22:29:53.680Z,95953.38
2023-04-06T22:31:56.643Z,95963.50
2023-04-06T22:33:59.402Z,95938.34
2023-04-06T22:36:02.452Z,95958.03
2023-04-06T22:38:05.230Z,95923.84
2023-04-06T22:40:08.937Z,95925.09
2023-04-06T22:42:11.731Z,95945.13
2023-04-06T22:44:16.273Z,95943.84
2023-04-06T22:46:19.334Z,95951.88
2023-04-06T22:48:22.425Z,95947.09
2023-04-06T22:50:25.891Z,95926.38
2023-04-06T22:52:28.825Z,95858.69
2023-04-06T22:54:31.595Z,95936.63
2023-04-06T22:56:34.436Z,95915.09
2023-04-06T22:58:37.341Z,95932.19
2023-04-06T23:00:41.536Z,95874.84
2023-04-06T23:02:44.446Z,95920.09
2023-04-06T23:04:47.409Z,95913.00
2023-04-06T23:06:50.130Z,95917.44
2023-04-06T23:08:53.559Z,95921.50
2023-04-06T23:10:56.431Z,95917.44
2023-04-06T23:12:59.346Z,95912.69
2023-04-06T23:15:02.238Z,95887.69
2023-04-06T23:17:06.726Z,95902.69
2023-04-06T23:19:09.514Z,95902.69
2023-04-06T23:21:12.299Z,95894.69
2023-04-06T23:23:15.030Z,95897.56
2023-04-06T23:25:18.093Z,95834.66
2023-04-06T23:27:21.023Z,95892.47
2023-04-06T23:29:23.764Z,95893.03
2023-04-06T23:31:26.573Z,95888.63
2023-04-06T23:33:30.647Z,95882.25
2023-04-06T23:35:33.370Z,95859.91
2023-04-06T23:37:36.333Z,95885.38
2023-04-06T23:39:39.422Z,95895.47
2023-04-06T23:41:43.066Z,95885.84
2023-04-06T23:43:45.817Z,95882.56
2023-04-06T23:45:48.509Z,95873.88
2023-04-06T23:47:51.398Z,95819.81
2023-04-06T23:49:56.316Z,95876.31
2023-04-06T23:51:59.057Z,95877.72
2023-04-06T23:54:01.966Z,95875.72
2023-04-06T23:56:07.966Z,95871.88
2023-04-06T23:58:10.669Z,95867.22
